Main page
METAR-TAF:

METAR-TAF

Airports :

Donegal, Ireland

Donegal Airport

latitude: 55-02-39N, longitude: 8-20-28W, elevation: 9 m

Current weather observation

The report was made 5 hours and 47 minutes ago, at 18:30 UTC
Wind 17 kt from the South
Temperature 16°C
Humidity 77%
Pressure 1013 hPa
Visibility 10 km or more
Scattered clouds at a height of 3000 ft

METAR: EIDL 191830Z 19017KT 9999 SCT030 16/12 Q1013

Time: 01:17 (00:17 UTC)

Forecast

The report was made 7 hours and 17 minutes ago, at 17:00 UTC
Forecast valid from 19 at 18 UTC to 19 at 21 UTC
Wind 16 kt from the South
Visibility 10 km or more
Scattered clouds at a height of 1500 ft
Broken clouds at a height of 2000 ft
Temporary
from 19 at 18 UTC to 19 at 21 UTC
Wind 17 kt from the South with gusts up to 27 kt
Visibility: 5000 m
Scattered clouds at a height of 700 ft
Broken clouds at a height of 1000 ft
light rain, drizzle

TAF: EIDL 191700Z 1918/1921 17016KT 9999 SCT015 BKN020 TEMPO 1918/1921 18017G27KT 5000 -RADZ SCT007 BKN010

Weather observations and forecasts of more than 4000 airports (METAR and TAF reports).

The available stations are represented by yellow and red dots on the map.

Hover mouse over dot to see the name of the station.

Then click to see weather observations and forecasts.

To change the map : click on the green buttons with a black cross to zoom in, on the green button with a dash to zoom out, or on the green arrows for adjacent maps.


METAR-TAF: